Terminal Aerodrome Forecast
Issued by NWS

Home | Current Version | Previous Version | Text Only | Print | Product List | Glossary On
Versions: 1 2 3 4 5 6 7 8 9 10 11 12 13 14 15 16
815
FTUS46 KHNX 301135
TAFFAT
TAF
KFAT 301135Z 3012/0112 31011KT P6SM BKN120
     FM301400 31015G23KT P6SM FEW120 SCT250
     FM302000 31010G15KT P6SM SKC
     FM010200 30007KT P6SM SKC
     FM010600 VRB03KT P6SM SKC=

USA.gov is the U.S. government's official web portal to all federal, state and local government web resources and services.